Wirdum, Netherlands
Current Conditions -  °F | °C
As of 7:28 PM on Friday 28 Nov 2014 (Local Time) from EHLW Reporting Station
Haze Haze  
Wind Chill: 29°   Ceiling: 8700
Heat Index: 37°   Visibility: 5mi
Dew Point: 32°   Wind: 14mph
Humidity: 81%   Direction: 100°E
Pressure: 29.91"   Gusts: NA
Location:  53.15°N, 5.8°E
Report Text: EHLW 281828Z AUTO 10012KT 8000 BR BKN087 OVC110 03/00 Q1013 BLU
Loading
Personal Weather Stations






























Interactive Weather Map New forecast layout! Learn more

10-Day Weather Forecast

Advertisements
Track Severe Weather on mobile